Peter R. Cresswell — VCBZ — position and weather

sailwx.info

Track history (hours):
 
Tides and Currents Weather Stations Pressure Air Temp Water Temp Dewpoint Dewpoint Depression Visibility Wind Speed Wind Dir Waves Ship Positions

Peter R. Cresswell

ex Algowest

Last reported at 2014-Jul-27 23:11 UTC. Time now 2014-Jul-30 02:59 UTC.
Position N 42°24' W 080°26'.

Length 219.2 m; beam 23.2 m; draft 8.7 m.

Type: Ship. MMSI: 316001697.

Date/timePositionNaut miles runAvg speedWind from/ knotsBaromVisibWave heightAir tempDewpointWater temp
2014-Jul-27 23:11N 42°24' W 080°26'811.2
2014-Jul-27 22:31N 42°27' W 080°16'1111.2
2014-Jul-27 21:33N 42°30' W 080°03'1111.2
2014-Jul-27 20:32N 42°36' W 079°49'  
2014-Jul-22 07:24N 45°41' W 083°33'1011.5
2014-Jul-22 06:33N 45°48' W 083°43'1111.2
2014-Jul-22 05:33N 45°57' W 083°54'9 8.8
2014-Jul-22 04:33N 46°04' W 084°00'9 8.6
2014-Jul-22 03:33N 46°11' W 084°07'8 6.1
2014-Jul-22 02:16N 46°18' W 084°13'  
2014-Jul-18 13:33N 46°26' W 084°16'15 7.3
2014-Jul-18 11:27N 46°12' W 084°07'9 9.9
2014-Jul-18 10:34N 46°05' W 084°01'10 9.5
2014-Jul-18 09:33N 45°57' W 083°53'1211.9
2014-Jul-18 08:33N 45°47' W 083°44'1212.1
2014-Jul-18 07:33N 45°37' W 083°34'  
Track history (hours):
 
Tides and Currents Weather Stations Pressure Air Temp Water Temp Dewpoint Dewpoint Depression Visibility Wind Speed Wind Dir Waves Ship Positions

Peter R. Cresswell

ex Algowest

Last reported at 2014-Jul-27 23:11 UTC. Time now 2014-Jul-30 02:59 UTC.
Position N 42°24' W 080°26'.

Length 219.2 m; beam 23.2 m; draft 8.7 m.

Type: Ship. MMSI: 316001697.

Date/timePositionNaut miles runAvg speedWind from/ knotsBaromVisibWave heightAir tempDewpointWater temp
2014-Jul-27 23:11N 42°24' W 080°26'811.2
2014-Jul-27 22:31N 42°27' W 080°16'1111.2
2014-Jul-27 21:33N 42°30' W 080°03'1111.2
2014-Jul-27 20:32N 42°36' W 079°49'  
2014-Jul-22 07:24N 45°41' W 083°33'1011.5
2014-Jul-22 06:33N 45°48' W 083°43'1111.2
2014-Jul-22 05:33N 45°57' W 083°54'9 8.8
2014-Jul-22 04:33N 46°04' W 084°00'9 8.6
2014-Jul-22 03:33N 46°11' W 084°07'8 6.1
2014-Jul-22 02:16N 46°18' W 084°13'  
2014-Jul-18 13:33N 46°26' W 084°16'15 7.3
2014-Jul-18 11:27N 46°12' W 084°07'9 9.9
2014-Jul-18 10:34N 46°05' W 084°01'10 9.5
2014-Jul-18 09:33N 45°57' W 083°53'1211.9
2014-Jul-18 08:33N 45°47' W 083°44'1212.1
2014-Jul-18 07:33N 45°37' W 083°34'  

Dump ship's entire track history